KUIL/UIL METAR and TAF weather

Enter ICAO airport designator
Station Type Date Time Source
KUIL METAR 2020/11/28 19:53 UTC NOAA

KUIL 281953Z AUTO 12003KT 10SM CLR 08/M01 A3037 RMK AO2 SLP284 T00831006 $


Station Type Date Time Source
KUIL Decoded METAR 2020/11/28 19:53 UTC NOAA

QUILLAYUTE STATE AIRPORT, WA, United States (KUIL) 47-56N 124-34W 54M
Nov 28, 2020 - 02:53 PM EST / 2020.11.28 1953 UTC
Wind: from the ESE (120 degrees) at 3 MPH (3 KT):0
Visibility: 10 mile(s):0
Sky conditions: clear
Temperature: 46.9 F (8.3 C)
Dew Point: 30.9 F (-0.6 C)
Relative Humidity: 53%
Pressure (altimeter): 30.37 in. Hg (1028 hPa)
ob: KUIL 281953Z AUTO 12003KT 10SM CLR 08/M01 A3037 RMK AO2 SLP284 T00831006
cycle: 20

Station Type Date Time Source
KUIL TAF UTC NOAA

Error!

Example: see airport list